sensor_id;sensor_type;location;lat;lon;timestamp;P1;durP1;ratioP1;P2;durP2;ratioP2
68792;SDS011;55778;54.346;10.210;2023-04-09T00:02:09;31.45;;;14.07;;
68792;SDS011;55778;54.346;10.210;2023-04-09T00:04:35;34.28;;;14.35;;
68792;SDS011;55778;54.346;10.210;2023-04-09T00:07:01;31.50;;;14.55;;
68792;SDS011;55778;54.346;10.210;2023-04-09T00:09:26;27.90;;;13.38;;
68792;SDS011;55778;54.346;10.210;2023-04-09T00:11:51;30.23;;;14.10;;
68792;SDS011;55778;54.346;10.210;2023-04-09T00:14:17;31.17;;;14.13;;
68792;SDS011;55778;54.346;10.210;2023-04-09T00:16:42;30.17;;;13.95;;
68792;SDS011;55778;54.346;10.210;2023-04-09T00:19:07;29.77;;;14.02;;
68792;SDS011;55778;54.346;10.210;2023-04-09T00:21:33;29.77;;;14.35;;
68792;SDS011;55778;54.346;10.210;2023-04-09T00:23:58;30.90;;;14.95;;
68792;SDS011;55778;54.346;10.210;2023-04-09T00:26:24;30.15;;;13.10;;
68792;SDS011;55778;54.346;10.210;2023-04-09T00:28:49;28.85;;;13.98;;
68792;SDS011;55778;54.346;10.210;2023-04-09T00:31:15;32.80;;;15.35;;
68792;SDS011;55778;54.346;10.210;2023-04-09T00:33:40;30.65;;;14.55;;
68792;SDS011;55778;54.346;10.210;2023-04-09T00:36:06;35.45;;;15.40;;
68792;SDS011;55778;54.346;10.210;2023-04-09T00:38:31;36.20;;;15.15;;
68792;SDS011;55778;54.346;10.210;2023-04-09T00:40:57;29.40;;;14.25;;
68792;SDS011;55778;54.346;10.210;2023-04-09T00:43:22;25.48;;;12.73;;
68792;SDS011;55778;54.346;10.210;2023-04-09T00:45:48;32.58;;;14.55;;
68792;SDS011;55778;54.346;10.210;2023-04-09T00:48:13;25.35;;;12.30;;
68792;SDS011;55778;54.346;10.210;2023-04-09T00:50:40;27.70;;;12.70;;
68792;SDS011;55778;54.346;10.210;2023-04-09T00:53:06;31.05;;;13.77;;
68792;SDS011;55778;54.346;10.210;2023-04-09T00:55:33;29.77;;;12.90;;
68792;SDS011;55778;54.346;10.210;2023-04-09T00:58:00;29.77;;;13.57;;
68792;SDS011;55778;54.346;10.210;2023-04-09T01:00:26;28.42;;;13.50;;
68792;SDS011;55778;54.346;10.210;2023-04-09T01:02:52;31.15;;;14.80;;
68792;SDS011;55778;54.346;10.210;2023-04-09T01:05:20;28.25;;;13.35;;
68792;SDS011;55778;54.346;10.210;2023-04-09T01:08:03;31.70;;;13.60;;
68792;SDS011;55778;54.346;10.210;2023-04-09T01:16:30;33.58;;;14.52;;
68792;SDS011;55778;54.346;10.210;2023-04-09T01:18:59;26.65;;;12.73;;
68792;SDS011;55778;54.346;10.210;2023-04-09T01:21:33;24.98;;;12.02;;
68792;SDS011;55778;54.346;10.210;2023-04-09T01:26:53;27.08;;;13.07;;
68792;SDS011;55778;54.346;10.210;2023-04-09T01:29:38;28.52;;;12.80;;
68792;SDS011;55778;54.346;10.210;2023-04-09T01:32:06;30.27;;;12.73;;
68792;SDS011;55778;54.346;10.210;2023-04-09T01:34:31;27.48;;;12.77;;
68792;SDS011;55778;54.346;10.210;2023-04-09T01:36:58;29.55;;;13.30;;
68792;SDS011;55778;54.346;10.210;2023-04-09T01:39:26;30.20;;;13.88;;
68792;SDS011;55778;54.346;10.210;2023-04-09T01:41:52;25.80;;;11.57;;
68792;SDS011;55778;54.346;10.210;2023-04-09T01:44:20;26.63;;;12.75;;
68792;SDS011;55778;54.346;10.210;2023-04-09T01:46:48;28.65;;;12.57;;
68792;SDS011;55778;54.346;10.210;2023-04-09T01:49:15;30.05;;;12.90;;
68792;SDS011;55778;54.346;10.210;2023-04-09T01:51:41;26.55;;;12.50;;
68792;SDS011;55778;54.346;10.210;2023-04-09T01:54:07;26.40;;;13.32;;
68792;SDS011;55778;54.346;10.210;2023-04-09T01:56:43;26.23;;;11.65;;
68792;SDS011;55778;54.346;10.210;2023-04-09T01:59:10;29.15;;;12.93;;
68792;SDS011;55778;54.346;10.210;2023-04-09T02:01:46;28.65;;;12.80;;
68792;SDS011;55778;54.346;10.210;2023-04-09T02:04:25;32.30;;;13.55;;
68792;SDS011;55778;54.346;10.210;2023-04-09T02:07:05;35.58;;;14.48;;
68792;SDS011;55778;54.346;10.210;2023-04-09T02:09:53;31.50;;;14.23;;
68792;SDS011;55778;54.346;10.210;2023-04-09T02:12:19;33.20;;;14.35;;
68792;SDS011;55778;54.346;10.210;2023-04-09T02:14:50;35.13;;;13.40;;
68792;SDS011;55778;54.346;10.210;2023-04-09T02:17:16;30.65;;;13.75;;
68792;SDS011;55778;54.346;10.210;2023-04-09T02:19:43;36.17;;;14.98;;
68792;SDS011;55778;54.346;10.210;2023-04-09T02:22:10;32.15;;;14.55;;
68792;SDS011;55778;54.346;10.210;2023-04-09T02:24:36;32.85;;;14.40;;
68792;SDS011;55778;54.346;10.210;2023-04-09T02:27:03;30.05;;;13.30;;
68792;SDS011;55778;54.346;10.210;2023-04-09T02:29:29;30.98;;;13.90;;
68792;SDS011;55778;54.346;10.210;2023-04-09T02:31:55;29.38;;;13.63;;
68792;SDS011;55778;54.346;10.210;2023-04-09T02:34:21;29.65;;;13.38;;
68792;SDS011;55778;54.346;10.210;2023-04-09T02:36:46;28.55;;;13.20;;
68792;SDS011;55778;54.346;10.210;2023-04-09T02:39:12;33.25;;;14.18;;
68792;SDS011;55778;54.346;10.210;2023-04-09T02:41:38;31.33;;;13.85;;
68792;SDS011;55778;54.346;10.210;2023-04-09T02:44:03;34.03;;;13.48;;
68792;SDS011;55778;54.346;10.210;2023-04-09T02:46:29;32.05;;;14.18;;
68792;SDS011;55778;54.346;10.210;2023-04-09T02:48:54;30.25;;;12.82;;
68792;SDS011;55778;54.346;10.210;2023-04-09T02:51:20;33.55;;;14.68;;
68792;SDS011;55778;54.346;10.210;2023-04-09T02:53:45;30.63;;;12.85;;
68792;SDS011;55778;54.346;10.210;2023-04-09T02:56:11;35.40;;;14.07;;
68792;SDS011;55778;54.346;10.210;2023-04-09T02:58:36;34.85;;;13.95;;
68792;SDS011;55778;54.346;10.210;2023-04-09T03:01:02;32.53;;;12.93;;
68792;SDS011;55778;54.346;10.210;2023-04-09T03:03:27;35.10;;;14.57;;
68792;SDS011;55778;54.346;10.210;2023-04-09T03:05:53;32.75;;;14.73;;
68792;SDS011;55778;54.346;10.210;2023-04-09T03:08:18;34.95;;;13.90;;
68792;SDS011;55778;54.346;10.210;2023-04-09T03:10:44;30.10;;;13.18;;
68792;SDS011;55778;54.346;10.210;2023-04-09T03:13:09;33.95;;;14.43;;
68792;SDS011;55778;54.346;10.210;2023-04-09T03:15:34;38.83;;;15.40;;
68792;SDS011;55778;54.346;10.210;2023-04-09T03:18:00;28.80;;;13.35;;
68792;SDS011;55778;54.346;10.210;2023-04-09T03:20:26;33.50;;;13.77;;
68792;SDS011;55778;54.346;10.210;2023-04-09T03:22:51;35.03;;;13.40;;
68792;SDS011;55778;54.346;10.210;2023-04-09T03:25:16;46.90;;;20.40;;
68792;SDS011;55778;54.346;10.210;2023-04-09T03:27:44;35.63;;;15.05;;
68792;SDS011;55778;54.346;10.210;2023-04-09T03:30:10;35.40;;;14.43;;
68792;SDS011;55778;54.346;10.210;2023-04-09T03:32:36;37.58;;;15.85;;
68792;SDS011;55778;54.346;10.210;2023-04-09T03:35:01;36.95;;;15.07;;
68792;SDS011;55778;54.346;10.210;2023-04-09T03:37:27;35.72;;;15.13;;
68792;SDS011;55778;54.346;10.210;2023-04-09T03:39:52;36.05;;;14.48;;
68792;SDS011;55778;54.346;10.210;2023-04-09T03:42:17;37.03;;;15.18;;
68792;SDS011;55778;54.346;10.210;2023-04-09T03:44:43;36.80;;;15.25;;
68792;SDS011;55778;54.346;10.210;2023-04-09T03:47:08;37.22;;;15.80;;
68792;SDS011;55778;54.346;10.210;2023-04-09T03:49:34;39.47;;;15.30;;
68792;SDS011;55778;54.346;10.210;2023-04-09T03:52:00;34.75;;;14.82;;
68792;SDS011;55778;54.346;10.210;2023-04-09T03:54:29;30.40;;;12.32;;
68792;SDS011;55778;54.346;10.210;2023-04-09T03:56:54;32.97;;;14.30;;
68792;SDS011;55778;54.346;10.210;2023-04-09T03:59:20;33.20;;;14.25;;
68792;SDS011;55778;54.346;10.210;2023-04-09T04:01:46;30.40;;;12.90;;
68792;SDS011;55778;54.346;10.210;2023-04-09T04:04:12;37.63;;;14.35;;
68792;SDS011;55778;54.346;10.210;2023-04-09T04:06:37;35.58;;;14.02;;
68792;SDS011;55778;54.346;10.210;2023-04-09T04:09:03;36.72;;;15.48;;
68792;SDS011;55778;54.346;10.210;2023-04-09T04:11:28;36.65;;;15.30;;
68792;SDS011;55778;54.346;10.210;2023-04-09T04:13:54;35.78;;;15.38;;
68792;SDS011;55778;54.346;10.210;2023-04-09T04:16:20;32.00;;;14.52;;
68792;SDS011;55778;54.346;10.210;2023-04-09T04:18:45;34.22;;;14.77;;
68792;SDS011;55778;54.346;10.210;2023-04-09T04:21:14;31.40;;;13.68;;
68792;SDS011;55778;54.346;10.210;2023-04-09T04:23:40;35.10;;;14.38;;
68792;SDS011;55778;54.346;10.210;2023-04-09T04:26:09;35.50;;;14.88;;
68792;SDS011;55778;54.346;10.210;2023-04-09T04:28:36;40.20;;;16.15;;
68792;SDS011;55778;54.346;10.210;2023-04-09T04:31:02;39.78;;;16.23;;
68792;SDS011;55778;54.346;10.210;2023-04-09T04:33:31;37.15;;;15.20;;
68792;SDS011;55778;54.346;10.210;2023-04-09T04:36:03;36.38;;;14.95;;
68792;SDS011;55778;54.346;10.210;2023-04-09T04:38:32;37.20;;;16.10;;
68792;SDS011;55778;54.346;10.210;2023-04-09T04:40:58;36.60;;;14.35;;
68792;SDS011;55778;54.346;10.210;2023-04-09T04:43:24;44.13;;;17.90;;
68792;SDS011;55778;54.346;10.210;2023-04-09T04:45:49;40.22;;;17.63;;
68792;SDS011;55778;54.346;10.210;2023-04-09T04:48:14;42.58;;;17.92;;
68792;SDS011;55778;54.346;10.210;2023-04-09T04:50:40;41.28;;;17.75;;
68792;SDS011;55778;54.346;10.210;2023-04-09T04:53:05;45.63;;;18.52;;
68792;SDS011;55778;54.346;10.210;2023-04-09T04:55:33;43.55;;;19.63;;
68792;SDS011;55778;54.346;10.210;2023-04-09T04:58:00;45.15;;;18.67;;
68792;SDS011;55778;54.346;10.210;2023-04-09T05:00:25;43.53;;;19.13;;
68792;SDS011;55778;54.346;10.210;2023-04-09T05:02:51;39.95;;;19.15;;
68792;SDS011;55778;54.346;10.210;2023-04-09T05:05:16;42.03;;;18.75;;
68792;SDS011;55778;54.346;10.210;2023-04-09T05:07:42;39.83;;;20.05;;
68792;SDS011;55778;54.346;10.210;2023-04-09T05:10:07;43.13;;;19.27;;
68792;SDS011;55778;54.346;10.210;2023-04-09T05:12:33;42.78;;;19.88;;
68792;SDS011;55778;54.346;10.210;2023-04-09T05:14:59;42.90;;;20.05;;
68792;SDS011;55778;54.346;10.210;2023-04-09T05:17:24;38.60;;;18.90;;
68792;SDS011;55778;54.346;10.210;2023-04-09T05:19:50;41.10;;;20.70;;
68792;SDS011;55778;54.346;10.210;2023-04-09T05:22:16;40.88;;;20.58;;
68792;SDS011;55778;54.346;10.210;2023-04-09T05:24:42;41.35;;;20.10;;
68792;SDS011;55778;54.346;10.210;2023-04-09T05:27:07;42.05;;;21.48;;
68792;SDS011;55778;54.346;10.210;2023-04-09T05:29:33;40.88;;;20.00;;
68792;SDS011;55778;54.346;10.210;2023-04-09T05:31:58;61.78;;;27.90;;
68792;SDS011;55778;54.346;10.210;2023-04-09T05:34:24;41.40;;;20.67;;
68792;SDS011;55778;54.346;10.210;2023-04-09T05:36:49;43.35;;;21.35;;
68792;SDS011;55778;54.346;10.210;2023-04-09T05:39:14;40.97;;;20.25;;
68792;SDS011;55778;54.346;10.210;2023-04-09T05:41:40;44.47;;;20.17;;
68792;SDS011;55778;54.346;10.210;2023-04-09T05:44:06;39.45;;;19.23;;
68792;SDS011;55778;54.346;10.210;2023-04-09T05:46:31;40.15;;;20.23;;
68792;SDS011;55778;54.346;10.210;2023-04-09T05:48:56;39.42;;;18.45;;
68792;SDS011;55778;54.346;10.210;2023-04-09T05:51:22;38.10;;;19.00;;
68792;SDS011;55778;54.346;10.210;2023-04-09T05:53:47;40.15;;;20.45;;
68792;SDS011;55778;54.346;10.210;2023-04-09T05:56:13;42.13;;;20.77;;
68792;SDS011;55778;54.346;10.210;2023-04-09T05:58:39;40.85;;;19.65;;
68792;SDS011;55778;54.346;10.210;2023-04-09T06:01:05;43.58;;;21.42;;
68792;SDS011;55778;54.346;10.210;2023-04-09T06:03:30;42.70;;;20.85;;
68792;SDS011;55778;54.346;10.210;2023-04-09T06:05:55;38.58;;;18.90;;
68792;SDS011;55778;54.346;10.210;2023-04-09T06:08:21;40.97;;;20.42;;
68792;SDS011;55778;54.346;10.210;2023-04-09T06:10:46;44.90;;;21.95;;
68792;SDS011;55778;54.346;10.210;2023-04-09T06:13:12;44.13;;;20.58;;
68792;SDS011;55778;54.346;10.210;2023-04-09T06:15:37;42.35;;;20.95;;
68792;SDS011;55778;54.346;10.210;2023-04-09T06:18:03;42.70;;;21.42;;
68792;SDS011;55778;54.346;10.210;2023-04-09T06:20:29;42.53;;;19.90;;
68792;SDS011;55778;54.346;10.210;2023-04-09T06:22:54;40.72;;;19.83;;
68792;SDS011;55778;54.346;10.210;2023-04-09T06:25:20;41.90;;;20.60;;
68792;SDS011;55778;54.346;10.210;2023-04-09T06:27:46;38.95;;;19.83;;
68792;SDS011;55778;54.346;10.210;2023-04-09T06:30:11;40.10;;;20.80;;
68792;SDS011;55778;54.346;10.210;2023-04-09T06:32:37;41.08;;;19.40;;
68792;SDS011;55778;54.346;10.210;2023-04-09T06:35:02;43.33;;;19.33;;
68792;SDS011;55778;54.346;10.210;2023-04-09T06:37:28;41.72;;;20.10;;
68792;SDS011;55778;54.346;10.210;2023-04-09T06:39:53;40.78;;;19.17;;
68792;SDS011;55778;54.346;10.210;2023-04-09T06:42:18;37.92;;;19.35;;
68792;SDS011;55778;54.346;10.210;2023-04-09T06:44:44;37.28;;;18.00;;
68792;SDS011;55778;54.346;10.210;2023-04-09T06:47:10;40.42;;;17.45;;
68792;SDS011;55778;54.346;10.210;2023-04-09T06:49:36;39.40;;;19.23;;
68792;SDS011;55778;54.346;10.210;2023-04-09T06:52:02;39.42;;;18.83;;
68792;SDS011;55778;54.346;10.210;2023-04-09T06:54:28;36.63;;;18.33;;
68792;SDS011;55778;54.346;10.210;2023-04-09T06:56:53;37.08;;;17.88;;
68792;SDS011;55778;54.346;10.210;2023-04-09T06:59:18;34.95;;;17.67;;
68792;SDS011;55778;54.346;10.210;2023-04-09T07:01:44;35.35;;;17.95;;
68792;SDS011;55778;54.346;10.210;2023-04-09T07:04:09;33.38;;;16.60;;
68792;SDS011;55778;54.346;10.210;2023-04-09T07:06:35;33.20;;;15.77;;
68792;SDS011;55778;54.346;10.210;2023-04-09T07:09:00;30.10;;;15.18;;
68792;SDS011;55778;54.346;10.210;2023-04-09T07:11:26;30.58;;;14.90;;
68792;SDS011;55778;54.346;10.210;2023-04-09T07:13:51;27.58;;;13.68;;
68792;SDS011;55778;54.346;10.210;2023-04-09T07:16:17;25.38;;;13.32;;
68792;SDS011;55778;54.346;10.210;2023-04-09T07:18:42;26.52;;;13.40;;
68792;SDS011;55778;54.346;10.210;2023-04-09T07:21:08;25.70;;;13.10;;
68792;SDS011;55778;54.346;10.210;2023-04-09T07:23:34;27.08;;;12.73;;
68792;SDS011;55778;54.346;10.210;2023-04-09T07:26:03;23.00;;;11.77;;
68792;SDS011;55778;54.346;10.210;2023-04-09T07:28:29;27.33;;;12.27;;
68792;SDS011;55778;54.346;10.210;2023-04-09T07:30:54;24.27;;;12.30;;
68792;SDS011;55778;54.346;10.210;2023-04-09T07:33:20;22.95;;;11.38;;
68792;SDS011;55778;54.346;10.210;2023-04-09T07:35:45;22.20;;;12.15;;
68792;SDS011;55778;54.346;10.210;2023-04-09T07:38:11;22.70;;;11.98;;
68792;SDS011;55778;54.346;10.210;2023-04-09T07:40:36;27.13;;;11.90;;
68792;SDS011;55778;54.346;10.210;2023-04-09T07:43:03;20.35;;;11.15;;
68792;SDS011;55778;54.346;10.210;2023-04-09T07:45:29;24.45;;;11.73;;
68792;SDS011;55778;54.346;10.210;2023-04-09T07:47:55;23.05;;;11.43;;
68792;SDS011;55778;54.346;10.210;2023-04-09T07:50:20;21.15;;;9.68;;
68792;SDS011;55778;54.346;10.210;2023-04-09T07:52:46;25.30;;;10.80;;
68792;SDS011;55778;54.346;10.210;2023-04-09T07:55:11;24.25;;;10.85;;
68792;SDS011;55778;54.346;10.210;2023-04-09T07:57:37;20.15;;;10.95;;
68792;SDS011;55778;54.346;10.210;2023-04-09T08:00:03;21.60;;;10.30;;
68792;SDS011;55778;54.346;10.210;2023-04-09T08:02:29;20.45;;;10.55;;
68792;SDS011;55778;54.346;10.210;2023-04-09T08:04:55;19.35;;;10.50;;
68792;SDS011;55778;54.346;10.210;2023-04-09T08:07:21;26.27;;;11.93;;
68792;SDS011;55778;54.346;10.210;2023-04-09T08:09:46;19.27;;;10.13;;
68792;SDS011;55778;54.346;10.210;2023-04-09T08:12:11;21.80;;;10.88;;
68792;SDS011;55778;54.346;10.210;2023-04-09T08:14:37;21.63;;;10.35;;
68792;SDS011;55778;54.346;10.210;2023-04-09T08:17:02;18.83;;;9.50;;
68792;SDS011;55778;54.346;10.210;2023-04-09T08:19:28;17.50;;;8.88;;
68792;SDS011;55778;54.346;10.210;2023-04-09T08:21:53;18.50;;;9.13;;
68792;SDS011;55778;54.346;10.210;2023-04-09T08:24:19;20.08;;;9.35;;
68792;SDS011;55778;54.346;10.210;2023-04-09T08:26:45;20.05;;;9.63;;
68792;SDS011;55778;54.346;10.210;2023-04-09T08:29:11;15.98;;;8.95;;
68792;SDS011;55778;54.346;10.210;2023-04-09T08:31:37;18.17;;;9.65;;
68792;SDS011;55778;54.346;10.210;2023-04-09T08:34:03;19.08;;;8.55;;
68792;SDS011;55778;54.346;10.210;2023-04-09T08:36:29;15.65;;;7.95;;
68792;SDS011;55778;54.346;10.210;2023-04-09T08:38:56;15.35;;;7.95;;
68792;SDS011;55778;54.346;10.210;2023-04-09T08:41:23;17.08;;;8.10;;
68792;SDS011;55778;54.346;10.210;2023-04-09T08:43:55;14.43;;;7.40;;
68792;SDS011;55778;54.346;10.210;2023-04-09T08:46:22;13.80;;;6.53;;
68792;SDS011;55778;54.346;10.210;2023-04-09T08:48:49;17.23;;;7.40;;
68792;SDS011;55778;54.346;10.210;2023-04-09T08:51:17;16.50;;;8.10;;
68792;SDS011;55778;54.346;10.210;2023-04-09T08:53:54;16.45;;;7.18;;
68792;SDS011;55778;54.346;10.210;2023-04-09T08:56:21;13.25;;;6.75;;
68792;SDS011;55778;54.346;10.210;2023-04-09T08:58:47;14.27;;;7.30;;
68792;SDS011;55778;54.346;10.210;2023-04-09T09:01:19;12.60;;;7.07;;
68792;SDS011;55778;54.346;10.210;2023-04-09T09:04:13;15.45;;;7.53;;
68792;SDS011;55778;54.346;10.210;2023-04-09T09:06:38;15.43;;;7.00;;
68792;SDS011;55778;54.346;10.210;2023-04-09T09:09:09;13.73;;;7.03;;
68792;SDS011;55778;54.346;10.210;2023-04-09T09:11:35;12.38;;;7.00;;
68792;SDS011;55778;54.346;10.210;2023-04-09T09:14:06;15.40;;;7.20;;
68792;SDS011;55778;54.346;10.210;2023-04-09T09:16:43;15.25;;;7.30;;
68792;SDS011;55778;54.346;10.210;2023-04-09T09:19:32;13.70;;;6.82;;
68792;SDS011;55778;54.346;10.210;2023-04-09T09:21:58;14.07;;;7.10;;
68792;SDS011;55778;54.346;10.210;2023-04-09T09:24:25;12.43;;;7.18;;
68792;SDS011;55778;54.346;10.210;2023-04-09T09:26:51;14.65;;;7.63;;
68792;SDS011;55778;54.346;10.210;2023-04-09T09:29:18;14.32;;;7.95;;
68792;SDS011;55778;54.346;10.210;2023-04-09T09:31:51;17.20;;;8.02;;
68792;SDS011;55778;54.346;10.210;2023-04-09T09:34:18;13.05;;;7.28;;
68792;SDS011;55778;54.346;10.210;2023-04-09T09:36:45;18.33;;;8.35;;
68792;SDS011;55778;54.346;10.210;2023-04-09T09:39:12;15.20;;;7.93;;
68792;SDS011;55778;54.346;10.210;2023-04-09T09:41:38;14.98;;;8.45;;
68792;SDS011;55778;54.346;10.210;2023-04-09T09:44:08;13.70;;;7.88;;
68792;SDS011;55778;54.346;10.210;2023-04-09T09:46:36;15.82;;;8.43;;
68792;SDS011;55778;54.346;10.210;2023-04-09T09:49:03;16.17;;;8.68;;
68792;SDS011;55778;54.346;10.210;2023-04-09T09:51:30;12.65;;;7.93;;
68792;SDS011;55778;54.346;10.210;2023-04-09T09:53:56;16.55;;;9.07;;
68792;SDS011;55778;54.346;10.210;2023-04-09T09:56:23;14.02;;;8.50;;
68792;SDS011;55778;54.346;10.210;2023-04-09T10:01:34;15.80;;;8.38;;
68792;SDS011;55778;54.346;10.210;2023-04-09T10:04:01;13.38;;;6.68;;
68792;SDS011;55778;54.346;10.210;2023-04-09T10:06:30;11.35;;;6.78;;
68792;SDS011;55778;54.346;10.210;2023-04-09T10:08:58;10.48;;;6.18;;
68792;SDS011;55778;54.346;10.210;2023-04-09T10:11:27;11.60;;;6.65;;
68792;SDS011;55778;54.346;10.210;2023-04-09T10:13:55;13.57;;;7.88;;
68792;SDS011;55778;54.346;10.210;2023-04-09T10:16:22;14.60;;;7.13;;
68792;SDS011;55778;54.346;10.210;2023-04-09T10:18:48;10.85;;;6.15;;
68792;SDS011;55778;54.346;10.210;2023-04-09T10:21:16;13.43;;;6.70;;
68792;SDS011;55778;54.346;10.210;2023-04-09T10:23:51;9.68;;;6.15;;
68792;SDS011;55778;54.346;10.210;2023-04-09T10:26:18;11.50;;;6.43;;
68792;SDS011;55778;54.346;10.210;2023-04-09T10:28:43;13.57;;;6.13;;
68792;SDS011;55778;54.346;10.210;2023-04-09T10:31:09;9.70;;;6.30;;
68792;SDS011;55778;54.346;10.210;2023-04-09T10:33:35;11.13;;;6.28;;
68792;SDS011;55778;54.346;10.210;2023-04-09T10:36:02;10.80;;;6.43;;
68792;SDS011;55778;54.346;10.210;2023-04-09T10:38:36;10.05;;;5.90;;
68792;SDS011;55778;54.346;10.210;2023-04-09T10:41:12;8.95;;;5.88;;
68792;SDS011;55778;54.346;10.210;2023-04-09T10:43:46;10.00;;;5.90;;
68792;SDS011;55778;54.346;10.210;2023-04-09T10:49:19;11.30;;;5.55;;
68792;SDS011;55778;54.346;10.210;2023-04-09T10:52:02;9.73;;;5.55;;
68792;SDS011;55778;54.346;10.210;2023-04-09T10:59:36;8.85;;;4.93;;
68792;SDS011;55778;54.346;10.210;2023-04-09T11:02:08;7.20;;;4.90;;
68792;SDS011;55778;54.346;10.210;2023-04-09T11:04:48;9.32;;;4.65;;
68792;SDS011;55778;54.346;10.210;2023-04-09T11:07:16;7.57;;;5.05;;
68792;SDS011;55778;54.346;10.210;2023-04-09T11:09:46;10.73;;;6.53;;
68792;SDS011;55778;54.346;10.210;2023-04-09T11:12:11;11.52;;;5.60;;
68792;SDS011;55778;54.346;10.210;2023-04-09T11:14:36;11.00;;;5.28;;
68792;SDS011;55778;54.346;10.210;2023-04-09T11:17:02;10.00;;;5.05;;
68792;SDS011;55778;54.346;10.210;2023-04-09T11:19:28;9.40;;;5.57;;
68792;SDS011;55778;54.346;10.210;2023-04-09T11:21:54;10.68;;;5.47;;
68792;SDS011;55778;54.346;10.210;2023-04-09T11:24:20;8.50;;;5.20;;
68792;SDS011;55778;54.346;10.210;2023-04-09T11:26:46;8.98;;;5.18;;
68792;SDS011;55778;54.346;10.210;2023-04-09T11:29:13;11.60;;;6.18;;
68792;SDS011;55778;54.346;10.210;2023-04-09T11:31:41;10.93;;;5.35;;
68792;SDS011;55778;54.346;10.210;2023-04-09T11:34:11;9.45;;;5.63;;
68792;SDS011;55778;54.346;10.210;2023-04-09T11:36:36;9.65;;;5.50;;
68792;SDS011;55778;54.346;10.210;2023-04-09T11:39:03;9.00;;;5.90;;
68792;SDS011;55778;54.346;10.210;2023-04-09T11:44:01;10.10;;;5.60;;
68792;SDS011;55778;54.346;10.210;2023-04-09T11:46:29;8.90;;;5.03;;
68792;SDS011;55778;54.346;10.210;2023-04-09T11:48:56;8.38;;;5.50;;
68792;SDS011;55778;54.346;10.210;2023-04-09T11:51:22;9.65;;;5.63;;
68792;SDS011;55778;54.346;10.210;2023-04-09T11:53:48;9.18;;;5.10;;
68792;SDS011;55778;54.346;10.210;2023-04-09T11:56:14;9.68;;;5.35;;
68792;SDS011;55778;54.346;10.210;2023-04-09T11:58:43;9.02;;;5.38;;
68792;SDS011;55778;54.346;10.210;2023-04-09T12:01:13;9.75;;;5.40;;
68792;SDS011;55778;54.346;10.210;2023-04-09T12:03:39;9.45;;;5.68;;
68792;SDS011;55778;54.346;10.210;2023-04-09T12:06:05;10.30;;;5.10;;
68792;SDS011;55778;54.346;10.210;2023-04-09T12:08:34;7.93;;;5.40;;
68792;SDS011;55778;54.346;10.210;2023-04-09T12:11:11;11.45;;;5.45;;
68792;SDS011;55778;54.346;10.210;2023-04-09T12:13:38;8.60;;;4.93;;
68792;SDS011;55778;54.346;10.210;2023-04-09T12:16:07;7.50;;;4.72;;
68792;SDS011;55778;54.346;10.210;2023-04-09T12:18:37;10.60;;;5.40;;
68792;SDS011;55778;54.346;10.210;2023-04-09T12:23:28;10.50;;;5.10;;
68792;SDS011;55778;54.346;10.210;2023-04-09T12:25:55;9.90;;;4.78;;
68792;SDS011;55778;54.346;10.210;2023-04-09T12:30:50;10.15;;;4.93;;
68792;SDS011;55778;54.346;10.210;2023-04-09T12:33:16;9.48;;;4.88;;
68792;SDS011;55778;54.346;10.210;2023-04-09T12:35:41;9.02;;;5.13;;
68792;SDS011;55778;54.346;10.210;2023-04-09T12:38:07;10.20;;;5.10;;
68792;SDS011;55778;54.346;10.210;2023-04-09T12:40:33;8.63;;;5.30;;
68792;SDS011;55778;54.346;10.210;2023-04-09T12:43:00;13.40;;;5.65;;
68792;SDS011;55778;54.346;10.210;2023-04-09T12:45:26;11.50;;;5.82;;
68792;SDS011;55778;54.346;10.210;2023-04-09T12:47:52;10.82;;;5.40;;
68792;SDS011;55778;54.346;10.210;2023-04-09T12:50:17;10.15;;;5.25;;
68792;SDS011;55778;54.346;10.210;2023-04-09T12:52:43;9.00;;;4.88;;
68792;SDS011;55778;54.346;10.210;2023-04-09T12:55:10;10.45;;;4.57;;
68792;SDS011;55778;54.346;10.210;2023-04-09T12:57:36;9.05;;;4.70;;
68792;SDS011;55778;54.346;10.210;2023-04-09T13:00:03;9.77;;;4.72;;
68792;SDS011;55778;54.346;10.210;2023-04-09T13:02:30;11.27;;;4.80;;
68792;SDS011;55778;54.346;10.210;2023-04-09T13:04:55;9.82;;;5.15;;
68792;SDS011;55778;54.346;10.210;2023-04-09T13:07:21;10.38;;;4.80;;
68792;SDS011;55778;54.346;10.210;2023-04-09T13:09:47;11.73;;;5.50;;
68792;SDS011;55778;54.346;10.210;2023-04-09T13:12:14;9.63;;;5.20;;
68792;SDS011;55778;54.346;10.210;2023-04-09T13:14:41;12.07;;;4.93;;
68792;SDS011;55778;54.346;10.210;2023-04-09T13:17:10;10.77;;;4.68;;
68792;SDS011;55778;54.346;10.210;2023-04-09T13:19:36;10.20;;;4.93;;
68792;SDS011;55778;54.346;10.210;2023-04-09T13:22:01;10.13;;;4.97;;
68792;SDS011;55778;54.346;10.210;2023-04-09T13:24:27;9.57;;;5.55;;
68792;SDS011;55778;54.346;10.210;2023-04-09T13:26:52;10.50;;;5.38;;
68792;SDS011;55778;54.346;10.210;2023-04-09T13:29:18;13.13;;;5.47;;
68792;SDS011;55778;54.346;10.210;2023-04-09T13:31:43;11.95;;;5.65;;
68792;SDS011;55778;54.346;10.210;2023-04-09T13:34:08;7.88;;;5.03;;
68792;SDS011;55778;54.346;10.210;2023-04-09T13:36:34;9.95;;;5.85;;
68792;SDS011;55778;54.346;10.210;2023-04-09T13:38:59;12.95;;;7.43;;
68792;SDS011;55778;54.346;10.210;2023-04-09T13:41:34;14.97;;;7.80;;
68792;SDS011;55778;54.346;10.210;2023-04-09T13:43:59;13.23;;;6.68;;
68792;SDS011;55778;54.346;10.210;2023-04-09T13:46:25;16.33;;;6.97;;
68792;SDS011;55778;54.346;10.210;2023-04-09T13:48:51;11.25;;;6.10;;
68792;SDS011;55778;54.346;10.210;2023-04-09T13:51:18;9.57;;;5.30;;
68792;SDS011;55778;54.346;10.210;2023-04-09T13:53:45;11.35;;;5.50;;
68792;SDS011;55778;54.346;10.210;2023-04-09T13:56:12;12.15;;;5.75;;
68792;SDS011;55778;54.346;10.210;2023-04-09T13:58:37;10.38;;;5.47;;
68792;SDS011;55778;54.346;10.210;2023-04-09T14:01:04;12.52;;;5.22;;
68792;SDS011;55778;54.346;10.210;2023-04-09T14:03:30;9.57;;;5.43;;
68792;SDS011;55778;54.346;10.210;2023-04-09T14:05:55;13.35;;;5.07;;
68792;SDS011;55778;54.346;10.210;2023-04-09T14:08:21;10.02;;;5.22;;
68792;SDS011;55778;54.346;10.210;2023-04-09T14:10:46;11.57;;;6.00;;
68792;SDS011;55778;54.346;10.210;2023-04-09T14:13:12;13.27;;;5.30;;
68792;SDS011;55778;54.346;10.210;2023-04-09T14:15:37;14.65;;;4.97;;
68792;SDS011;55778;54.346;10.210;2023-04-09T14:18:03;10.82;;;5.70;;
68792;SDS011;55778;54.346;10.210;2023-04-09T14:20:28;11.68;;;5.70;;
68792;SDS011;55778;54.346;10.210;2023-04-09T14:22:54;13.60;;;5.30;;
68792;SDS011;55778;54.346;10.210;2023-04-09T14:25:19;10.50;;;5.13;;
68792;SDS011;55778;54.346;10.210;2023-04-09T14:27:45;9.43;;;5.03;;
68792;SDS011;55778;54.346;10.210;2023-04-09T14:30:11;10.98;;;5.43;;
68792;SDS011;55778;54.346;10.210;2023-04-09T14:32:37;9.80;;;4.80;;
68792;SDS011;55778;54.346;10.210;2023-04-09T14:35:03;11.68;;;5.93;;
68792;SDS011;55778;54.346;10.210;2023-04-09T14:37:29;12.07;;;6.18;;
68792;SDS011;55778;54.346;10.210;2023-04-09T14:39:54;14.32;;;6.57;;
68792;SDS011;55778;54.346;10.210;2023-04-09T14:42:20;13.88;;;5.80;;